Time;durP1;ratioP1;P1;durP2;ratioP2;P2;SDS_P1;SDS_P2;PMS_P1;PMS_P2;Temp;Humidity;BMP_temperature;BMP_pressure;BME280_temperature;BME280_humidity;BME280_pressure;Samples;Min_cycle;Max_cycle;Signal;HPM_P1;HPM_P2
2021/12/05 00:22:16;;;;;;;20.73;10.07;;;1.00;99.90;;;;;;5073944;28;20028;-74
2021/12/05 00:24:48;;;;;;;16.38;9.45;;;1.00;99.90;;;;;;5055678;28;20060;-74
2021/12/05 00:27:22;;;;;;;17.20;9.25;;;1.00;99.90;;;;;;5056223;28;20031;-74
2021/12/05 00:32:47;;;;;;;19.08;8.98;;;1.00;99.90;;;;;;5073586;28;20212;-74
2021/12/05 00:38:59;;;;;;;17.67;9.55;;;1.00;99.90;;;;;;5073549;28;20131;-73
2021/12/05 00:48:57;;;;;;;20.23;10.02;;;1.00;99.90;;;;;;5073427;28;20114;-74
2021/12/05 01:07:42;;;;;;;21.67;10.27;;;1.10;99.90;;;;;;5073063;28;20039;-74
2021/12/05 01:15:11;;;;;;;17.80;10.82;;;1.10;99.90;;;;;;5073329;28;20036;-74
2021/12/05 01:17:53;;;;;;;18.75;10.40;;;1.10;99.90;;;;;;5058950;28;20035;-74
2021/12/05 01:20:21;;;;;;;22.15;10.55;;;1.10;99.90;;;;;;5058967;28;20025;-74
2021/12/05 01:22:58;;;;;;;25.17;12.25;;;1.10;99.90;;;;;;5077017;28;20032;-74
2021/12/05 01:25:40;;;;;;;17.33;10.05;;;1.10;99.90;;;;;;5059159;28;20025;-73
2021/12/05 01:28:33;;;;;;;20.42;10.18;;;1.10;99.90;;;;;;5076706;28;20379;-74
2021/12/05 01:33:59;;;;;;;20.15;10.30;;;1.10;99.90;;;;;;5096878;28;20034;-73
2021/12/05 01:36:31;;;;;;;18.77;10.27;;;1.20;99.90;;;;;;5096254;28;20044;-73
2021/12/05 02:08:59;;;;;;;22.02;10.30;;;1.20;99.90;;;;;;5096589;28;20379;-73
2021/12/05 02:33:29;;;;;;;18.30;9.23;;;1.20;99.90;;;;;;5075405;28;20021;-73
2021/12/05 02:41:11;;;;;;;19.58;10.15;;;1.20;99.90;;;;;;5075362;28;20111;-73
2021/12/05 02:43:42;;;;;;;14.52;8.25;;;1.20;99.90;;;;;;5075027;28;20020;-74
2021/12/05 02:46:11;;;;;;;19.35;10.02;;;1.20;99.90;;;;;;5057495;28;20029;-74
2021/12/05 02:48:38;;;;;;;;;;;1.20;99.90;;;;;;5075502;28;20024;-74
2021/12/05 02:51:10;;;;;;;17.58;9.00;;;1.20;99.90;;;;;;5057119;28;19999;-74
2021/12/05 02:53:49;;;;;;;24.25;10.27;;;1.20;99.90;;;;;;5075034;28;20029;-73
2021/12/05 02:56:17;;;;;;;22.20;11.18;;;1.20;99.90;;;;;;5075065;28;20025;-73
2021/12/05 02:58:48;;;;;;;26.45;10.73;;;1.20;99.90;;;;;;5057031;28;20476;-74
2021/12/05 03:01:36;;;;;;;19.50;9.32;;;1.20;99.90;;;;;;5057453;28;20025;-74
2021/12/05 03:04:04;;;;;;;21.52;10.35;;;1.20;99.90;;;;;;5057317;28;20029;-74
2021/12/05 03:06:32;;;;;;;24.85;11.65;;;1.20;99.90;;;;;;5057214;28;20036;-74
2021/12/05 03:09:13;;;;;;;25.95;11.30;;;1.20;99.90;;;;;;5074913;28;20020;-74
2021/12/05 03:11:39;;;;;;;22.65;10.45;;;1.20;99.90;;;;;;5074718;28;20036;-74
2021/12/05 03:14:05;;;;;;;22.60;11.20;;;1.30;99.90;;;;;;5056509;28;20036;-74
2021/12/05 03:16:33;;;;;;;21.00;11.05;;;1.30;99.90;;;;;;5074317;28;20420;-74
2021/12/05 03:18:59;;;;;;;23.65;11.05;;;1.30;99.90;;;;;;5074564;28;20077;-74
2021/12/05 03:21:26;;;;;;;24.30;10.45;;;1.30;99.90;;;;;;5056695;28;20111;-74
2021/12/05 03:23:53;;;;;;;22.58;11.30;;;1.30;99.90;;;;;;5074434;28;20029;-74
2021/12/05 03:26:25;;;;;;;21.13;10.00;;;1.30;99.90;;;;;;5074450;28;20029;-73
2021/12/05 03:28:54;;;;;;;20.58;10.60;;;1.30;99.90;;;;;;5056168;28;20067;-73
2021/12/05 03:31:21;;;;;;;20.38;10.02;;;1.30;99.90;;;;;;5074155;28;20127;-74
2021/12/05 03:33:47;;;;;;;27.33;12.20;;;1.40;99.90;;;;;;5074194;28;20029;-74
2021/12/05 03:36:13;;;;;;;21.65;10.45;;;1.40;99.90;;;;;;5056349;28;20027;-74
2021/12/05 03:38:40;;;;;;;22.67;10.52;;;1.40;99.90;;;;;;5073954;28;20024;-74
2021/12/05 03:41:07;;;;;;;23.40;10.57;;;1.40;99.90;;;;;;5073884;28;20024;-73
2021/12/05 03:43:34;;;;;;;20.50;10.38;;;1.40;99.90;;;;;;5056224;28;20353;-74
2021/12/05 03:46:00;;;;;;;26.05;11.52;;;1.40;99.90;;;;;;5074041;28;20024;-74
2021/12/05 03:48:30;;;;;;;26.23;11.00;;;1.40;99.90;;;;;;5056172;28;20464;-74
2021/12/05 03:50:57;;;;;;;22.75;11.55;;;1.40;99.90;;;;;;5074219;28;20097;-74
2021/12/05 03:53:23;;;;;;;23.13;11.38;;;1.40;99.90;;;;;;5056071;28;20031;-74
2021/12/05 03:55:51;;;;;;;22.77;11.13;;;1.40;99.90;;;;;;5073884;28;20028;-74
2021/12/05 03:58:18;;;;;;;26.33;11.63;;;1.40;99.90;;;;;;5073886;28;20567;-74
2021/12/05 04:00:47;;;;;;;24.20;10.98;;;1.50;99.90;;;;;;5073653;28;20033;-73
2021/12/05 04:03:16;;;;;;;24.98;12.15;;;1.50;99.90;;;;;;5074373;28;20021;-74
2021/12/05 04:05:42;;;;;;;23.75;11.50;;;1.50;99.90;;;;;;5055823;28;20031;-74
2021/12/05 04:08:11;;;;;;;21.25;11.00;;;1.50;99.90;;;;;;5073799;28;20388;-73
2021/12/05 04:10:42;;;;;;;25.33;10.88;;;1.50;99.90;;;;;;5073674;28;20102;-74
2021/12/05 04:13:07;;;;;;;22.55;11.38;;;1.50;99.90;;;;;;5055539;28;20028;-75
2021/12/05 04:15:33;;;;;;;23.80;10.82;;;1.50;99.90;;;;;;5073734;28;20048;-73
2021/12/05 04:17:59;;;;;;;22.35;11.18;;;1.50;99.90;;;;;;5073741;28;20487;-74
2021/12/05 04:23:10;;;;;;;21.67;10.98;;;1.50;99.90;;;;;;5073596;28;20055;-73
2021/12/05 04:25:37;;;;;;;22.90;12.07;;;1.50;99.90;;;;;;5055444;28;20066;-73
2021/12/05 04:28:06;;;;;;;26.25;11.80;;;1.50;99.90;;;;;;5055667;28;20039;-74
2021/12/05 04:30:32;;;;;;;23.45;11.32;;;1.50;99.90;;;;;;5073516;28;20052;-73
2021/12/05 04:32:58;;;;;;;20.45;10.48;;;1.50;99.90;;;;;;5074133;28;20032;-73
2021/12/05 04:35:24;;;;;;;24.98;12.15;;;1.50;99.90;;;;;;5073502;28;20037;-74
2021/12/05 04:37:50;;;;;;;23.52;11.95;;;1.50;99.90;;;;;;5073540;28;20074;-74
2021/12/05 04:40:16;;;;;;;26.15;12.52;;;1.50;99.90;;;;;;5055515;28;20024;-74
2021/12/05 04:42:42;;;;;;;23.48;11.85;;;1.50;99.90;;;;;;5073482;28;20345;-74
2021/12/05 04:45:15;;;;;;;23.48;11.52;;;1.50;99.90;;;;;;5073499;28;20051;-73
2021/12/05 04:47:41;;;;;;;22.88;11.80;;;1.60;99.90;;;;;;5055559;28;20031;-74
2021/12/05 04:50:08;;;;;;;23.27;12.02;;;1.60;99.90;;;;;;5073560;28;20028;-74
2021/12/05 04:52:53;;;;;;;21.92;11.48;;;1.50;99.90;;;;;;5059110;28;20043;-74
2021/12/05 04:55:19;;;;;;;26.77;11.98;;;1.60;99.90;;;;;;5059446;28;20387;-74
2021/12/05 04:57:48;;;;;;;23.13;12.07;;;1.60;99.90;;;;;;5077263;28;20100;-74
2021/12/05 05:00:23;;;;;;;25.13;12.93;;;1.60;99.90;;;;;;5059216;28;20039;-74
2021/12/05 05:02:50;;;;;;;26.27;11.48;;;1.60;99.90;;;;;;5077266;28;20021;-74
2021/12/05 05:05:16;;;;;;;25.92;11.77;;;1.60;99.90;;;;;;5059345;28;20032;-74
2021/12/05 05:07:43;;;;;;;22.17;11.00;;;1.60;99.90;;;;;;5077032;28;20078;-74
2021/12/05 05:10:17;;;;;;;23.83;11.95;;;1.60;99.90;;;;;;5077249;28;20024;-74
2021/12/05 05:12:43;;;;;;;25.15;12.40;;;1.60;99.90;;;;;;5059522;28;20032;-74
2021/12/05 05:15:10;;;;;;;28.17;12.70;;;1.60;99.90;;;;;;5076858;28;20419;-74
2021/12/05 05:17:37;;;;;;;27.80;12.55;;;1.50;99.90;;;;;;5058640;28;20032;-74
2021/12/05 05:20:12;;;;;;;25.17;12.15;;;1.50;99.90;;;;;;5058891;28;20456;-75
2021/12/05 05:23:00;;;;;;;20.27;10.73;;;1.60;99.90;;;;;;5058580;28;20416;-74
2021/12/05 05:47:28;;;;;;;10.55;6.28;;;2.30;99.90;;;;;;5076703;28;20086;-73
2021/12/05 05:52:20;;;;;;;9.68;5.63;;;2.60;99.90;;;;;;5076257;28;20476;-74
2021/12/05 05:54:48;;;;;;;8.98;5.28;;;2.70;99.90;;;;;;5076080;28;20036;-74
2021/12/05 05:57:59;;;;;;;10.57;5.53;;;2.70;99.90;;;;;;5076188;28;20025;-74
2021/12/05 06:00:18;;;;;;;9.20;5.30;;;2.80;99.90;;;;;;5073486;28;20057;-74
2021/12/05 06:05:32;;;;;;;7.78;4.90;;;2.90;99.90;;;;;;5076062;28;20043;-75
2021/12/05 06:07:58;;;;;;;9.40;5.50;;;2.90;99.90;;;;;;5076766;28;20028;-75
2021/12/05 06:10:27;;;;;;;8.38;4.75;;;3.00;99.90;;;;;;5057995;28;20031;-74
2021/12/05 06:12:53;;;;;;;7.78;4.50;;;3.10;99.90;;;;;;5076376;28;20024;-74
2021/12/05 06:15:21;;;;;;;7.82;4.63;;;3.10;99.90;;;;;;5075734;28;20044;-74
2021/12/05 06:17:47;;;;;;;6.68;4.53;;;3.20;99.90;;;;;;5058078;28;20221;-74
2021/12/05 06:20:16;;;;;;;5.63;3.55;;;3.20;99.90;;;;;;5057787;28;20365;-75
2021/12/05 06:22:44;;;;;;;8.20;3.88;;;3.20;99.90;;;;;;5058211;28;20021;-75
2021/12/05 06:25:12;;;;;;;6.70;4.03;;;3.20;99.90;;;;;;5058092;28;20029;-75
2021/12/05 06:27:38;;;;;;;5.47;3.33;;;3.40;99.90;;;;;;5058471;28;20376;-74
2021/12/05 06:30:10;;;;;;;4.57;3.42;;;3.50;99.90;;;;;;5066243;28;20056;-75
2021/12/05 06:38:09;;;;;;;5.45;3.40;;;3.60;99.90;;;;;;5095960;28;20077;-74
2021/12/05 06:45:56;;;;;;;3.88;2.47;;;3.50;99.90;;;;;;5095584;28;20032;-74
2021/12/05 06:46:25;;;;;;;4.15;2.45;;;3.50;99.90;;;;;;5095702;28;20365;-74
2021/12/05 06:48:42;;;;;;;5.57;2.10;;;3.50;99.90;;;;;;5093340;28;20032;-74
2021/12/05 06:51:12;;;;;;;3.50;2.08;;;3.60;99.90;;;;;;5094094;28;20056;-75
2021/12/05 06:53:39;;;;;;;3.03;1.85;;;3.60;99.90;;;;;;5095086;28;20081;-74
2021/12/05 06:56:06;;;;;;;1.98;1.65;;;3.60;99.90;;;;;;5093899;28;20498;-75
2021/12/05 06:58:34;;;;;;;1.75;1.40;;;3.60;99.90;;;;;;5094061;28;20028;-74
2021/12/05 07:01:01;;;;;;;2.15;1.67;;;3.50;99.90;;;;;;5093942;28;20031;-75
2021/12/05 07:03:27;;;;;;;2.20;1.50;;;3.60;99.90;;;;;;5094472;28;20028;-76
2021/12/05 07:06:17;;;;;;;2.03;1.77;;;3.60;99.90;;;;;;5095159;28;20080;-74
2021/12/05 07:08:43;;;;;;;1.52;1.10;;;3.60;99.90;;;;;;5095223;28;20043;-74
2021/12/05 07:11:26;;;;;;;1.55;1.20;;;3.60;99.90;;;;;;5093771;28;20460;-74
2021/12/05 07:19:32;;;;;;;1.90;1.73;;;3.70;99.90;;;;;;5094828;28;20052;-73
2021/12/05 07:22:00;;;;;;;1.30;1.20;;;3.70;99.90;;;;;;5094643;28;20473;-73
2021/12/05 07:40:28;;;;;;;1.70;1.60;;;4.00;99.90;;;;;;5074292;28;20055;-73
2021/12/05 07:43:03;;;;;;;1.90;1.75;;;4.00;99.90;;;;;;5074350;28;20112;-74
2021/12/05 07:45:35;;;;;;;1.92;1.60;;;4.00;99.90;;;;;;5056613;28;20025;-73
2021/12/05 07:48:14;;;;;;;1.98;1.55;;;4.00;99.90;;;;;;5056392;28;20024;-72
2021/12/05 07:53:47;;;;;;;2.20;1.33;;;4.00;99.90;;;;;;5048818;28;20033;-73
2021/12/05 07:56:19;;;;;;;2.15;1.63;;;4.00;99.90;;;;;;5057078;28;20123;-69
2021/12/05 08:14:57;;;;;;;2.08;1.52;;;4.10;99.90;;;;;;5073449;28;20197;-68
2021/12/05 08:17:23;;;;;;;1.85;1.40;;;4.10;99.90;;;;;;5073797;28;20021;-68
2021/12/05 08:19:49;;;;;;;2.03;1.50;;;4.00;99.90;;;;;;5073573;28;20122;-68
2021/12/05 08:22:33;;;;;;;3.88;1.67;;;4.00;99.90;;;;;;5073496;28;20080;-69
2021/12/05 08:25:08;;;;;;;3.72;1.40;;;3.90;99.90;;;;;;5073761;28;20029;-68
2021/12/05 08:27:34;;;;;;;3.63;1.88;;;3.90;99.90;;;;;;5077851;28;20035;-70
2021/12/05 08:30:07;;;;;;;2.97;1.55;;;3.90;99.90;;;;;;5077727;28;20391;-70
2021/12/05 08:32:48;;;;;;;3.92;1.55;;;3.90;99.90;;;;;;5060054;28;20020;-68
2021/12/05 10:16:12;;;;;;;1.95;1.55;;;3.30;99.90;;;;;;5075801;28;20108;-67
2021/12/05 10:26:56;;;;;;;2.67;1.73;;;3.20;99.90;;;;;;5075701;28;20030;-67
2021/12/05 10:38:00;;;;;;;2.05;1.80;;;3.50;99.90;;;;;;5075127;28;20028;-66
2021/12/05 10:40:42;;;;;;;4.25;1.48;;;3.60;99.90;;;;;;5057846;28;20082;-66
2021/12/05 10:43:17;;;;;;;4.07;1.45;;;3.50;99.90;;;;;;5057410;28;20456;-68
2021/12/05 10:45:46;;;;;;;4.47;1.45;;;3.40;99.90;;;;;;5075079;28;20046;-66
2021/12/05 10:48:20;;;;;;;1.27;1.17;;;3.40;99.90;;;;;;5074031;28;20101;-65
2021/12/05 10:50:51;;;;;;;1.90;1.20;;;3.30;99.90;;;;;;5075220;28;20025;-65
2021/12/05 10:53:33;;;;;;;1.33;1.23;;;3.30;99.90;;;;;;5075092;28;20059;-64
2021/12/05 10:56:19;;;;;;;2.30;1.23;;;3.20;99.90;;;;;;5057389;28;20044;-65
2021/12/05 10:58:57;;;;;;;1.52;1.27;;;3.20;99.90;;;;;;5075120;28;20024;-66
2021/12/05 11:01:38;;;;;;;1.15;1.05;;;3.20;99.90;;;;;;5057292;28;20027;-66
2021/12/05 11:04:05;;;;;;;2.97;1.30;;;3.20;99.90;;;;;;5075015;28;20025;-65
2021/12/05 11:06:34;;;;;;;2.95;1.00;;;3.30;99.90;;;;;;5074877;28;20086;-69
2021/12/05 11:09:32;;;;;;;1.40;1.08;;;3.30;99.90;;;;;;5056824;28;20028;-66
2021/12/05 11:12:23;;;;;;;1.02;0.98;;;3.30;99.90;;;;;;5074869;28;20039;-66
2021/12/05 11:14:57;;;;;;;1.85;1.20;;;3.40;99.90;;;;;;5056752;28;20036;-66
2021/12/05 11:17:28;;;;;;;1.10;1.00;;;3.40;99.90;;;;;;5074609;28;20025;-67
2021/12/05 11:20:17;;;;;;;1.48;1.00;;;3.50;99.90;;;;;;5074637;28;20037;-66
2021/12/05 11:22:46;;;;;;;2.55;0.88;;;3.50;99.90;;;;;;5074661;28;20112;-66
2021/12/05 11:25:22;;;;;;;2.25;0.93;;;3.50;99.90;;;;;;5074559;28;20461;-66
2021/12/05 11:27:49;;;;;;;1.42;1.20;;;3.50;99.90;;;;;;5074167;28;20036;-66
2021/12/05 11:30:21;;;;;;;4.82;1.95;;;3.50;99.90;;;;;;5073896;28;20057;-66
2021/12/05 11:33:00;;;;;;;1.25;1.15;;;3.50;99.90;;;;;;5074571;28;20039;-66
2021/12/05 11:35:43;;;;;;;2.45;1.20;;;3.50;99.90;;;;;;5074121;28;20098;-66
2021/12/05 11:38:15;;;;;;;1.48;1.38;;;3.60;99.90;;;;;;5056061;28;20020;-66
2021/12/05 11:40:58;;;;;;;1.27;0.80;;;3.60;99.90;;;;;;5074240;28;20020;-66
2021/12/05 11:43:42;;;;;;;1.45;0.95;;;3.60;99.90;;;;;;5074190;28;20056;-66
2021/12/05 11:46:32;;;;;;;1.05;0.93;;;3.60;99.90;;;;;;5056201;28;20396;-66
2021/12/05 11:49:13;;;;;;;1.48;0.98;;;3.60;99.90;;;;;;5074116;28;20052;-66
2021/12/05 11:51:44;;;;;;;1.35;1.00;;;3.60;99.90;;;;;;5056899;28;20059;-66
2021/12/05 11:54:24;;;;;;;3.63;0.85;;;3.50;99.90;;;;;;5074060;28;20035;-66
2021/12/05 11:56:54;;;;;;;3.60;0.57;;;3.60;99.90;;;;;;5056776;28;20025;-69
2021/12/05 11:59:43;;;;;;;3.08;1.20;;;3.70;99.90;;;;;;5055775;28;20025;-70
2021/12/05 12:02:26;;;;;;;1.33;0.70;;;3.70;99.90;;;;;;5056162;28;20024;-66
2021/12/05 12:04:57;;;;;;;2.58;1.40;;;3.70;99.90;;;;;;5073833;28;20036;-66
2021/12/05 12:07:29;;;;;;;2.45;0.77;;;3.60;99.90;;;;;;5074366;28;20468;-66
2021/12/05 12:10:07;;;;;;;1.98;1.05;;;3.60;99.90;;;;;;5074618;28;20415;-66
2021/12/05 12:12:33;;;;;;;2.33;1.02;;;3.50;99.90;;;;;;5074545;28;20031;-65
2021/12/05 12:14:59;;;;;;;3.70;0.80;;;3.50;99.90;;;;;;5055763;28;20037;-66
2021/12/05 12:17:25;;;;;;;4.40;0.80;;;3.40;99.90;;;;;;5073594;28;20020;-66
2021/12/05 12:19:54;;;;;;;1.10;1.00;;;3.40;99.90;;;;;;5073856;28;20345;-66
2021/12/05 12:22:21;;;;;;;3.80;0.80;;;3.50;99.90;;;;;;5056150;28;20457;-66
2021/12/05 12:24:53;;;;;;;3.53;1.20;;;3.50;99.90;;;;;;5056403;28;20037;-67
2021/12/05 12:27:19;;;;;;;0.90;0.60;;;3.50;99.90;;;;;;5077344;28;20115;-65
2021/12/05 12:29:46;;;;;;;1.88;0.90;;;3.50;99.90;;;;;;5073934;28;20045;-65
2021/12/05 12:32:16;;;;;;;8.68;1.15;;;3.50;99.90;;;;;;5073664;28;20066;-65
2021/12/05 12:34:43;;;;;;;1.00;0.75;;;3.50;99.90;;;;;;5073803;28;20077;-65
2021/12/05 12:37:10;;;;;;;1.85;1.10;;;3.50;99.90;;;;;;5055989;28;20025;-64
2021/12/05 12:39:41;;;;;;;2.72;0.90;;;3.50;99.90;;;;;;5056007;28;20025;-66
2021/12/05 12:42:28;;;;;;;0.90;0.63;;;3.50;99.90;;;;;;5055925;28;20025;-66
2021/12/05 12:45:18;;;;;;;2.15;0.73;;;3.50;99.90;;;;;;5073872;28;20032;-70
2021/12/05 12:47:59;;;;;;;3.28;1.38;;;3.50;99.90;;;;;;5073893;28;20055;-65
2021/12/05 12:50:34;;;;;;;1.42;0.93;;;3.60;99.90;;;;;;5073652;28;20025;-66
2021/12/05 12:53:04;;;;;;;2.00;1.00;;;3.60;99.90;;;;;;5055578;28;20377;-66
2021/12/05 12:55:35;;;;;;;1.20;0.90;;;3.60;99.90;;;;;;5055571;28;20396;-66
2021/12/05 12:58:05;;;;;;;0.65;0.65;;;3.60;99.90;;;;;;5074044;28;20111;-66
2021/12/05 13:00:35;;;;;;;2.70;0.90;;;3.60;99.90;;;;;;5073647;28;20036;-67
2021/12/05 13:03:40;;;;;;;0.60;0.57;;;3.60;99.90;;;;;;5073508;28;20028;-65
2021/12/05 13:11:48;;;;;;;2.58;1.08;;;3.50;99.90;;;;;;5074266;28;20051;-65
2021/12/05 13:14:14;;;;;;;1.00;0.88;;;3.60;99.90;;;;;;5058906;28;20520;-65
2021/12/05 13:16:44;;;;;;;1.10;0.70;;;3.50;99.90;;;;;;5076910;28;20028;-65
2021/12/05 13:19:27;;;;;;;0.75;0.65;;;3.50;99.90;;;;;;5059113;28;20384;-65
2021/12/05 13:22:03;;;;;;;1.63;1.05;;;3.40;99.90;;;;;;5076907;28;20031;-65
2021/12/05 13:24:32;;;;;;;0.98;0.80;;;3.40;99.90;;;;;;5058797;28;20032;-64
2021/12/05 13:27:27;;;;;;;2.65;1.23;;;3.30;99.90;;;;;;5076766;28;20025;-65
2021/12/05 13:29:56;;;;;;;2.83;1.08;;;3.30;99.90;;;;;;5067691;28;20083;-65
2021/12/05 13:32:29;;;;;;;3.72;1.67;;;3.30;99.90;;;;;;5076592;28;20074;-66
2021/12/05 13:35:00;;;;;;;3.30;0.90;;;3.30;99.90;;;;;;5076518;28;20040;-67
2021/12/05 13:37:45;;;;;;;2.13;1.25;;;3.30;99.90;;;;;;5076492;28;20063;-66
2021/12/05 13:40:18;;;;;;;1.65;1.55;;;3.30;99.90;;;;;;5076570;28;20024;-66
2021/12/05 13:42:53;;;;;;;5.13;1.95;;;3.30;99.90;;;;;;5058522;28;20111;-66
2021/12/05 13:45:19;;;;;;;1.30;1.20;;;3.30;99.90;;;;;;5076643;28;20032;-67
2021/12/05 13:47:54;;;;;;;1.80;1.27;;;3.30;99.90;;;;;;5076403;28;20020;-66
2021/12/05 13:50:22;;;;;;;3.92;1.70;;;3.30;99.90;;;;;;5058393;28;20021;-66
2021/12/05 13:52:52;;;;;;;1.50;1.20;;;3.30;99.90;;;;;;5058289;28;20029;-66
2021/12/05 13:55:49;;;;;;;5.25;2.00;;;3.30;99.90;;;;;;5058615;28;20133;-67
2021/12/05 13:58:33;;;;;;;2.42;1.63;;;3.30;99.90;;;;;;5076228;28;20028;-67
2021/12/05 14:01:16;;;;;;;4.03;1.80;;;3.30;99.90;;;;;;5076383;28;20039;-67
2021/12/05 14:03:45;;;;;;;5.30;2.30;;;3.30;99.90;;;;;;5076418;28;20027;-66
2021/12/05 14:06:42;;;;;;;5.00;1.95;;;3.30;99.90;;;;;;5076057;28;20108;-66
2021/12/05 14:09:20;;;;;;;3.53;2.40;;;3.30;99.90;;;;;;5076136;28;20068;-66
2021/12/05 14:11:50;;;;;;;4.47;1.65;;;3.30;99.90;;;;;;5075944;28;20147;-66
2021/12/05 14:14:19;;;;;;;4.18;2.45;;;3.30;99.90;;;;;;5076386;28;20459;-67
2021/12/05 14:16:46;;;;;;;3.65;2.40;;;3.30;99.90;;;;;;5075836;28;20032;-66
2021/12/05 14:19:15;;;;;;;3.53;2.50;;;3.40;99.90;;;;;;5057944;28;20389;-66
2021/12/05 14:21:42;;;;;;;;;;;3.40;99.90;;;;;;5076133;28;20021;-66
2021/12/05 14:24:09;;;;;;;3.80;2.60;;;3.40;99.90;;;;;;5074233;28;20030;-66
2021/12/05 14:26:39;;;;;;;4.18;2.85;;;3.40;99.90;;;;;;5057454;28;20464;-66
2021/12/05 14:29:15;;;;;;;3.63;2.08;;;3.40;99.90;;;;;;5075698;28;20034;-67
2021/12/05 14:31:55;;;;;;;5.15;2.72;;;3.40;99.90;;;;;;5077720;28;20072;-66
2021/12/05 14:34:21;;;;;;;3.60;2.55;;;3.40;99.90;;;;;;5075431;28;20147;-65
2021/12/05 14:37:09;;;;;;;5.68;2.67;;;3.40;99.90;;;;;;5057481;28;20025;-65
2021/12/05 14:39:39;;;;;;;2.63;2.40;;;3.40;99.90;;;;;;5075438;28;20035;-67
2021/12/05 14:42:18;;;;;;;3.50;2.70;;;3.30;99.90;;;;;;5057338;28;20033;-67
2021/12/05 14:44:47;;;;;;;3.53;2.20;;;3.30;99.90;;;;;;5075615;28;20038;-67
2021/12/05 14:47:19;;;;;;;5.25;2.78;;;3.30;99.90;;;;;;5075179;28;20526;-69
2021/12/05 14:49:51;;;;;;;3.20;2.35;;;3.30;99.90;;;;;;5057300;28;20031;-65
2021/12/05 14:52:28;;;;;;;5.55;2.40;;;3.30;99.90;;;;;;5075352;28;20047;-65
2021/12/05 14:54:55;;;;;;;4.82;2.58;;;3.30;99.90;;;;;;5075032;28;20056;-65
2021/12/05 14:57:25;;;;;;;8.57;2.72;;;3.40;99.90;;;;;;5074957;28;20114;-66
2021/12/05 15:00:00;;;;;;;7.32;4.13;;;3.40;99.90;;;;;;5074933;28;20082;-66
2021/12/05 15:02:27;;;;;;;3.78;2.65;;;3.30;99.90;;;;;;5057002;28;20120;-65
2021/12/05 15:04:54;;;;;;;5.20;2.90;;;3.30;99.90;;;;;;5056842;28;20123;-67
2021/12/05 15:07:22;;;;;;;4.22;2.65;;;3.30;99.90;;;;;;5056791;28;20024;-67
2021/12/05 15:09:51;;;;;;;4.20;2.40;;;3.30;99.90;;;;;;5074747;28;20032;-77
2021/12/05 15:12:23;;;;;;;3.45;2.85;;;3.30;99.90;;;;;;5056896;28;20032;-71
2021/12/05 15:14:53;;;;;;;5.57;3.00;;;3.30;99.90;;;;;;5056757;28;20032;-72
2021/12/05 15:17:29;;;;;;;6.55;3.00;;;3.30;99.90;;;;;;5074559;28;20048;-72
2021/12/05 15:20:02;;;;;;;4.68;2.92;;;3.30;99.90;;;;;;5074299;28;20110;-70
2021/12/05 15:22:28;;;;;;;6.32;3.22;;;3.30;99.90;;;;;;5057069;28;20036;-70
2021/12/05 15:25:00;;;;;;;5.55;3.42;;;3.30;99.90;;;;;;5074403;28;20025;-71
2021/12/05 15:27:30;;;;;;;5.85;4.05;;;3.30;99.90;;;;;;5074515;28;20473;-71
2021/12/05 15:30:14;;;;;;;6.93;4.22;;;3.30;99.90;;;;;;5056253;28;20465;-71
2021/12/05 15:32:41;;;;;;;6.45;3.78;;;3.30;99.90;;;;;;5056420;28;20040;-70
2021/12/05 15:35:11;;;;;;;9.07;4.47;;;3.30;99.90;;;;;;5055989;28;20388;-73
2021/12/05 15:37:37;;;;;;;6.57;3.97;;;3.30;99.90;;;;;;5056866;28;20024;-72
2021/12/05 15:40:05;;;;;;;6.65;4.10;;;3.30;99.90;;;;;;5074171;28;20024;-70
2021/12/05 15:42:37;;;;;;;6.83;4.10;;;3.30;99.90;;;;;;5074215;28;20027;-72
2021/12/05 15:45:10;;;;;;;10.95;4.70;;;3.30;99.90;;;;;;5074115;28;20146;-72
2021/12/05 15:47:37;;;;;;;8.10;4.53;;;3.30;99.90;;;;;;5074563;28;20020;-72
2021/12/05 15:50:18;;;;;;;4.70;3.60;;;3.30;99.90;;;;;;5074191;28;20028;-73
2021/12/05 15:53:06;;;;;;;6.68;3.80;;;3.30;99.90;;;;;;5056081;28;20028;-73
2021/12/05 15:55:38;;;;;;;4.20;2.88;;;3.30;99.90;;;;;;5074169;28;20036;-73
2021/12/05 15:58:09;;;;;;;6.25;3.67;;;3.30;99.90;;;;;;5056018;28;20028;-72
2021/12/05 16:01:03;;;;;;;8.95;4.10;;;3.30;99.90;;;;;;5056287;28;20024;-73
2021/12/05 16:04:03;;;;;;;6.00;3.72;;;3.30;99.90;;;;;;5068742;28;20079;-71
2021/12/05 16:06:41;;;;;;;6.90;3.33;;;3.30;99.90;;;;;;5019844;28;20048;-71
2021/12/05 16:09:20;;;;;;;7.82;3.70;;;3.30;99.90;;;;;;5073790;28;20056;-72
2021/12/05 16:11:48;;;;;;;5.45;3.05;;;3.30;99.90;;;;;;5055652;28;20039;-72
2021/12/05 16:14:28;;;;;;;6.45;4.10;;;3.30;99.90;;;;;;5073755;28;20032;-72
2021/12/05 16:16:53;;;;;;;6.32;3.97;;;3.30;99.90;;;;;;5055805;28;20579;-72
2021/12/05 16:19:19;;;;;;;10.15;4.10;;;3.30;99.90;;;;;;5073870;28;20099;-71
2021/12/05 16:21:45;;;;;;;11.50;4.93;;;3.30;99.90;;;;;;5074266;28;20024;-72
2021/12/05 16:24:14;;;;;;;8.52;3.92;;;3.30;99.90;;;;;;5055496;28;20114;-71
2021/12/05 16:26:42;;;;;;;8.30;4.53;;;3.30;99.90;;;;;;5073673;28;20135;-72
2021/12/05 16:29:12;;;;;;;6.03;4.50;;;3.30;99.90;;;;;;5055436;28;20032;-72
2021/12/05 16:31:39;;;;;;;9.95;4.97;;;3.30;99.90;;;;;;5074184;28;20041;-72
2021/12/05 16:34:11;;;;;;;7.40;4.25;;;3.30;99.90;;;;;;5055579;28;20121;-73
2021/12/05 16:36:39;;;;;;;11.07;5.00;;;3.30;99.90;;;;;;5073929;28;20040;-70
2021/12/05 16:39:27;;;;;;;7.88;3.88;;;3.30;99.90;;;;;;5073945;28;20025;-71
2021/12/05 16:41:56;;;;;;;6.90;4.78;;;3.30;99.90;;;;;;5073643;28;20461;-70
2021/12/05 16:44:27;;;;;;;6.25;4.00;;;3.30;99.90;;;;;;5073227;28;20048;-70
2021/12/05 16:47:00;;;;;;;5.88;3.92;;;3.30;99.90;;;;;;5074454;28;20037;-70
2021/12/05 16:49:30;;;;;;;7.63;4.05;;;3.30;99.90;;;;;;5059898;28;20024;-68
2021/12/05 16:51:59;;;;;;;5.20;3.63;;;3.30;99.90;;;;;;5059689;28;20098;-69
2021/12/05 16:54:35;;;;;;;6.03;3.60;;;3.30;99.90;;;;;;5077298;28;20365;-69
2021/12/05 16:57:02;;;;;;;5.47;3.92;;;3.30;99.90;;;;;;5077375;28;20060;-68
2021/12/05 16:59:38;;;;;;;15.48;7.28;;;3.30;99.90;;;;;;5077534;28;20491;-69
2021/12/05 17:02:21;;;;;;;14.25;8.48;;;3.30;99.90;;;;;;5059278;28;20032;-68
2021/12/05 17:05:06;;;;;;;8.48;5.68;;;3.30;99.90;;;;;;5077123;28;20064;-69
2021/12/05 17:07:44;;;;;;;8.73;4.40;;;3.30;99.90;;;;;;5059536;28;20020;-68
2021/12/05 17:10:28;;;;;;;8.03;5.60;;;3.30;99.90;;;;;;5077093;28;20027;-68
2021/12/05 17:12:55;;;;;;;8.40;5.35;;;3.30;99.90;;;;;;5077016;28;20025;-68
2021/12/05 17:15:24;;;;;;;11.00;5.88;;;3.30;99.90;;;;;;5058902;28;20059;-68
2021/12/05 17:17:53;;;;;;;11.38;5.53;;;3.30;99.90;;;;;;5076996;28;20108;-68
2021/12/05 17:20:19;;;;;;;7.43;4.68;;;3.40;99.90;;;;;;5058884;28;20055;-71
2021/12/05 17:23:19;;;;;;;7.90;5.10;;;3.40;99.90;;;;;;5059337;28;20461;-71
2021/12/05 17:25:49;;;;;;;7.40;4.10;;;3.40;99.90;;;;;;5059258;28;20036;-70
2021/12/05 17:28:34;;;;;;;10.32;5.00;;;3.40;99.90;;;;;;5076472;28;20036;-70
2021/12/05 17:31:03;;;;;;;8.43;5.40;;;3.40;99.90;;;;;;5076880;28;20041;-71
2021/12/05 17:33:36;;;;;;;;;;;3.40;99.90;;;;;;5059113;28;20028;-70
2021/12/05 17:39:10;;;;;;;8.73;5.00;;;3.40;99.90;;;;;;5076423;28;20085;-66
2021/12/05 17:41:36;;;;;;;12.70;5.88;;;3.40;99.90;;;;;;5076637;28;20085;-72
2021/12/05 17:44:04;;;;;;;7.88;5.45;;;3.40;99.90;;;;;;5058593;28;20032;-71
2021/12/05 17:46:32;;;;;;;9.38;5.78;;;3.40;99.90;;;;;;5076514;28;20039;-71
2021/12/05 17:49:00;;;;;;;9.95;5.30;;;3.30;99.90;;;;;;5076768;28;20024;-71
2021/12/05 17:51:33;;;;;;;11.95;6.18;;;3.30;99.90;;;;;;5076394;28;20036;-71
2021/12/05 17:53:59;;;;;;;8.95;4.90;;;3.30;99.90;;;;;;5058402;28;20082;-72
2021/12/05 17:56:51;;;;;;;10.85;5.28;;;3.30;99.90;;;;;;5058454;28;20033;-70
2021/12/05 18:04:46;;;;;;;11.15;5.28;;;3.20;99.90;;;;;;5004175;28;20042;-74
2021/12/05 18:07:12;;;;;;;10.23;5.82;;;3.20;99.90;;;;;;5076251;28;20024;-72
2021/12/05 18:09:38;;;;;;;10.38;6.55;;;3.20;99.90;;;;;;5076002;28;20035;-72
2021/12/05 18:12:07;;;;;;;13.15;7.07;;;3.20;99.90;;;;;;5057744;28;20115;-71
2021/12/05 18:14:35;;;;;;;;;;;3.20;99.90;;;;;;5076293;28;20082;-71
2021/12/05 18:17:02;;;;;;;14.60;6.40;;;3.20;99.90;;;;;;5058138;28;19904;-70
2021/12/05 18:19:27;;;;;;;13.40;7.03;;;3.10;99.90;;;;;;5075827;28;20444;-70
2021/12/05 18:21:53;;;;;;;15.40;6.57;;;3.20;99.90;;;;;;5057851;28;20051;-70
2021/12/05 18:24:20;;;;;;;11.07;5.90;;;3.10;99.90;;;;;;5057825;28;20380;-71
2021/12/05 18:26:48;;;;;;;11.77;6.28;;;3.10;99.90;;;;;;5057777;28;20075;-71
2021/12/05 18:29:16;;;;;;;12.43;6.53;;;3.10;99.90;;;;;;5057616;28;20028;-71
2021/12/05 18:31:44;;;;;;;9.80;5.63;;;3.10;99.90;;;;;;5088510;28;20059;-71
2021/12/05 18:34:18;;;;;;;9.27;5.72;;;3.10;99.90;;;;;;5095786;28;20158;-71
2021/12/05 18:36:44;;;;;;;8.00;5.63;;;3.10;99.90;;;;;;5094918;28;20089;-71
2021/12/05 18:39:18;;;;;;;8.23;5.65;;;3.10;99.90;;;;;;5095650;28;20053;-71
2021/12/05 18:41:44;;;;;;;11.73;6.85;;;3.10;99.90;;;;;;5094585;28;20493;-71
2021/12/05 18:44:16;;;;;;;10.80;6.50;;;3.10;99.90;;;;;;5095686;28;20456;-71
2021/12/05 18:46:43;;;;;;;8.40;5.28;;;3.10;99.90;;;;;;5095333;28;20365;-70